Time;durP1;ratioP1;P1;durP2;ratioP2;P2;SDS_P1;SDS_P2;PMS_P1;PMS_P2;Temp;Humidity;BMP_temperature;BMP_pressure;BME280_temperature;BME280_humidity;BME280_pressure;Samples;Min_cycle;Max_cycle;Signal;HPM_P1;HPM_P2
2023/09/28 00:02:23;;;;;;;46.20;12.32;;;;;;;15.79;100.00;98689.81;5069298;28;20550;-65
2023/09/28 00:04:49;;;;;;;45.55;12.10;;;;;;;15.69;100.00;98687.19;5070488;28;20055;-65
2023/09/28 00:07:16;;;;;;;44.08;10.77;;;;;;;15.83;100.00;98669.25;5070021;28;20056;-65
2023/09/28 00:09:43;;;;;;;40.40;11.23;;;;;;;15.74;100.00;98669.16;5071456;28;20055;-65
2023/09/28 00:12:09;;;;;;;38.10;10.93;;;;;;;15.74;100.00;98658.59;5068214;28;20059;-65
2023/09/28 00:14:36;;;;;;;38.42;12.23;;;;;;;15.70;100.00;98643.97;5065749;28;20410;-65
2023/09/28 00:17:03;;;;;;;47.25;12.15;;;;;;;15.67;100.00;98652.19;5069109;28;20759;-65
2023/09/28 00:19:30;;;;;;;32.70;9.63;;;;;;;15.84;100.00;98645.38;5070644;28;20044;-65
2023/09/28 00:21:56;;;;;;;48.10;11.43;;;;;;;15.78;100.00;98631.94;5070553;28;20067;-65
2023/09/28 00:24:23;;;;;;;52.08;11.05;;;;;;;15.81;100.00;98621.09;5070333;28;20057;-65
2023/09/28 00:26:51;;;;;;;38.75;9.07;;;;;;;15.99;100.00;98623.81;5060952;28;20550;-65
2023/09/28 00:29:18;;;;;;;36.65;10.13;;;;;;;15.82;100.00;98613.03;5070371;28;20048;-65
2023/09/28 00:31:45;;;;;;;35.67;9.48;;;;;;;15.66;100.00;98592.47;5070647;28;20478;-65
2023/09/28 00:34:12;;;;;;;46.50;12.70;;;;;;;15.71;100.00;98602.63;5070906;28;20501;-65
2023/09/28 00:36:38;;;;;;;38.20;9.20;;;;;;;15.80;100.00;98595.69;5070052;28;20059;-65
2023/09/28 00:39:07;;;;;;;34.60;10.05;;;;;;;15.92;100.00;98591.91;5062065;28;20486;-65
2023/09/28 00:41:33;;;;;;;30.40;9.00;;;;;;;15.72;100.00;98570.81;5069430;28;20591;-64
2023/09/28 00:44:00;;;;;;;45.72;10.68;;;;;;;15.62;100.00;98563.91;5067968;28;20037;-65
2023/09/28 00:46:31;;;;;;;40.25;9.60;;;;;;;15.68;100.00;98552.78;5070571;28;20896;-65
2023/09/28 00:49:03;;;;;;;53.17;10.40;;;;;;;15.46;100.00;98535.50;5070162;28;20048;-65
2023/09/28 00:51:31;;;;;;;32.72;9.50;;;;;;;15.35;100.00;98533.81;5070387;28;20071;-65
2023/09/28 00:54:02;;;;;;;38.85;10.05;;;;;;;15.46;100.00;98524.94;5063312;28;20048;-65
2023/09/28 00:56:30;;;;;;;46.55;12.20;;;;;;;15.41;100.00;98541.19;5055905;28;20045;-64
2023/09/28 00:58:56;;;;;;;42.30;8.82;;;;;;;15.47;100.00;98519.50;5060069;28;20055;-65
2023/09/28 01:01:27;;;;;;;31.20;9.82;;;;;;;15.41;100.00;98508.72;5067378;28;20084;-65
2023/09/28 01:03:55;;;;;;;39.50;9.43;;;;;;;15.28;100.00;98507.22;5082395;28;20076;-64
2023/09/28 01:06:24;;;;;;;38.78;9.68;;;;;;;15.34;100.00;98497.91;5067819;28;20067;-65
2023/09/28 01:08:52;;;;;;;57.10;10.95;;;;;;;15.26;100.00;98498.59;5067171;28;20081;-65
2023/09/28 01:11:22;;;;;;;40.40;10.23;;;;;;;15.47;100.00;98485.22;5063379;28;20053;-65
2023/09/28 01:13:49;;;;;;;45.58;11.18;;;;;;;15.44;100.00;98501.34;5063229;28;20052;-65
2023/09/28 01:16:19;;;;;;;39.78;10.13;;;;;;;15.29;100.00;98490.41;5068800;28;20048;-64
2023/09/28 01:18:46;;;;;;;45.88;10.60;;;;;;;15.17;100.00;98478.38;5069109;28;20071;-65
2023/09/28 01:21:13;;;;;;;38.53;8.98;;;;;;;15.36;100.00;98465.13;5070113;28;20048;-65
2023/09/28 01:23:39;;;;;;;38.83;9.15;;;;;;;15.21;100.00;98455.19;5069676;28;20115;-64
2023/09/28 01:26:06;;;;;;;34.78;8.75;;;;;;;15.23;100.00;98443.53;5069970;28;20056;-64
2023/09/28 01:28:34;;;;;;;38.92;9.25;;;;;;;15.17;100.00;98462.56;5069267;28;20135;-66
2023/09/28 01:31:01;;;;;;;32.63;9.73;;;;;;;15.05;100.00;98434.69;5068897;28;20049;-64
2023/09/28 01:33:29;;;;;;;34.33;8.50;;;;;;;15.14;100.00;98437.31;5064408;28;20056;-66
2023/09/28 01:35:56;;;;;;;41.33;7.72;;;;;;;15.02;100.00;98420.03;5068644;28;20454;-64
2023/09/28 01:38:31;;;;;;;21.92;6.20;;;;;;;15.17;100.00;98404.56;5069057;28;20078;-64
2023/09/28 01:40:57;;;;;;;27.90;6.28;;;;;;;15.10;100.00;98391.16;5069527;28;20422;-65
2023/09/28 01:43:24;;;;;;;37.25;6.75;;;;;;;15.03;100.00;98376.03;5068959;28;20049;-65
2023/09/28 01:45:51;;;;;;;29.33;7.07;;;;;;;15.05;100.00;98374.09;5069204;28;20049;-64
2023/09/28 01:48:18;;;;;;;31.80;7.47;;;;;;;15.08;100.00;98360.63;5062720;28;20071;-65
2023/09/28 01:50:45;;;;;;;32.53;6.63;;;;;;;14.96;100.00;98352.06;5066467;28;20041;-64
2023/09/28 01:53:12;;;;;;;21.65;5.03;;;;;;;14.99;100.00;98359.69;5067426;28;20045;-65
2023/09/28 01:55:39;;;;;;;22.35;5.40;;;;;;;14.99;100.00;98359.69;5069758;28;20135;-65
2023/09/28 01:58:07;;;;;;;20.60;4.82;;;;;;;15.19;100.00;98357.81;5069395;28;20084;-65
2023/09/28 02:00:35;;;;;;;23.88;4.20;;;;;;;15.19;100.00;98353.38;5062734;28;20051;-65
2023/09/28 02:03:08;;;;;;;22.63;4.57;;;;;;;15.10;100.00;98348.13;5069722;28;20056;-65
2023/09/28 02:05:35;;;;;;;20.85;4.72;;;;;;;15.26;100.00;98358.06;5069142;28;20074;-65
2023/09/28 02:08:05;;;;;;;24.70;4.97;;;;;;;15.17;100.00;98352.72;5068714;28;20080;-65
2023/09/28 02:10:32;;;;;;;25.35;4.45;;;;;;;15.25;100.00;98354.59;5068031;28;20405;-65
2023/09/28 02:12:59;;;;;;;14.95;3.65;;;;;;;15.38;100.00;98364.81;5058350;28;20048;-65
2023/09/28 02:15:27;;;;;;;19.75;4.18;;;;;;;15.51;100.00;98364.47;5064345;28;20056;-66
2023/09/28 02:17:53;;;;;;;22.02;4.35;;;;;;;15.43;100.00;98364.38;5068549;28;20048;-65
2023/09/28 02:20:22;;;;;;;22.05;4.10;;;;;;;15.38;100.00;98349.00;5069337;28;20514;-65
2023/09/28 02:22:52;;;;;;;18.08;4.03;;;;;;;15.49;100.00;98361.13;5068648;28;20325;-65
2023/09/28 02:25:22;;;;;;;17.00;3.28;;;;;;;15.44;100.00;98358.09;5071290;28;20723;-65
2023/09/28 02:27:50;;;;;;;15.32;3.08;;;;;;;15.44;100.00;98352.84;5071386;28;20142;-65
2023/09/28 02:30:19;;;;;;;12.88;3.03;;;;;;;15.42;100.00;98349.53;5072837;28;20429;-65
2023/09/28 02:32:47;;;;;;;16.75;3.10;;;;;;;15.44;100.00;98352.84;5073182;28;20048;-65
2023/09/28 02:35:16;;;;;;;14.68;3.05;;;;;;;15.44;100.00;98360.75;5072747;28;20052;-65
2023/09/28 02:37:48;;;;;;;10.95;2.42;;;;;;;15.51;100.00;98364.47;5071569;28;20044;-65
2023/09/28 02:40:17;;;;;;;11.57;2.53;;;;;;;15.49;100.00;98358.50;5073296;28;20657;-65
2023/09/28 02:42:44;;;;;;;9.77;2.05;;;;;;;15.41;100.00;98353.16;5071681;28;20394;-65
2023/09/28 02:45:14;;;;;;;10.90;2.90;;;;;;;15.40;100.00;98368.13;5063778;28;20072;-65
2023/09/28 02:47:43;;;;;;;10.82;2.45;;;;;;;15.41;100.00;98374.25;5057211;28;20063;-65
2023/09/28 02:50:12;;;;;;;12.57;3.05;;;;;;;15.41;100.00;98375.06;5070812;28;20144;-65
2023/09/28 02:52:41;;;;;;;8.80;1.80;;;;;;;15.37;100.00;98379.81;5065642;28;20134;-65
2023/09/28 02:55:10;;;;;;;9.68;1.85;;;;;;;15.40;100.00;98377.84;5063662;28;20060;-65
2023/09/28 02:57:37;;;;;;;9.70;1.98;;;;;;;15.34;100.00;98389.81;5070982;28;20555;-65
2023/09/28 03:00:17;;;;;;;9.57;1.80;;;;;;;15.29;100.00;98399.97;5072190;28;20049;-65
2023/09/28 03:02:45;;;;;;;8.60;1.77;;;;;;;15.28;100.00;98416.75;5072261;28;20044;-65
2023/09/28 03:05:11;;;;;;;7.53;2.15;;;;;;;15.31;100.00;98422.56;5069600;28;20194;-65
2023/09/28 03:07:42;;;;;;;6.57;1.45;;;;;;;15.43;100.00;98435.56;5070673;28;20056;-65
2023/09/28 03:10:10;;;;;;;7.00;1.33;;;;;;;15.40;100.00;98439.31;5072202;28;20059;-65
2023/09/28 03:12:36;;;;;;;7.63;2.10;;;;;;;15.23;100.00;98440.91;5071190;28;20429;-65
2023/09/28 03:15:10;;;;;;;5.22;1.33;;;;;;;15.28;100.00;98451.00;5070535;28;20052;-65
2023/09/28 03:17:39;;;;;;;8.93;1.65;;;;;;;15.29;100.00;98469.31;5066618;28;20510;-65
2023/09/28 03:20:13;;;;;;;7.47;1.52;;;;;;;15.30;100.00;98478.09;5071735;28;20078;-65
2023/09/28 03:22:44;;;;;;;8.88;1.67;;;;;;;15.23;100.00;98485.72;5063291;28;20390;-65
2023/09/28 03:25:17;;;;;;;4.47;1.48;;;;;;;15.23;100.00;98498.06;5072583;28;20517;-65
2023/09/28 03:27:47;;;;;;;7.13;1.40;;;;;;;15.15;100.00;98499.59;5071307;28;20056;-65
2023/09/28 03:30:16;;;;;;;7.30;1.38;;;;;;;15.18;100.00;98507.22;5071778;28;20068;-65
2023/09/28 03:32:43;;;;;;;6.28;1.50;;;;;;;15.05;100.00;98511.97;5071906;28;20055;-65
2023/09/28 03:35:10;;;;;;;6.63;1.60;;;;;;;15.12;100.00;98531.53;5068786;28;20511;-65
2023/09/28 03:37:37;;;;;;;6.70;1.95;;;;;;;15.16;100.00;98540.81;5069731;28;20048;-65
2023/09/28 03:40:11;;;;;;;6.53;1.30;;;;;;;15.27;100.00;98552.19;5064019;28;20044;-65
2023/09/28 03:42:45;;;;;;;8.02;1.50;;;;;;;15.23;100.00;98553.41;5064608;28;20056;-65
2023/09/28 03:45:21;;;;;;;6.32;1.50;;;;;;;15.25;100.00;98559.41;5069969;28;20383;-65
2023/09/28 03:47:53;;;;;;;6.60;1.42;;;;;;;15.28;100.00;98580.19;5070188;28;20067;-65
2023/09/28 03:50:23;;;;;;;4.25;1.40;;;;;;;15.30;100.00;98591.44;5071545;28;20135;-65
2023/09/28 03:52:50;;;;;;;4.35;1.15;;;;;;;15.27;100.00;98599.63;5071756;28;20087;-65
2023/09/28 03:55:20;;;;;;;4.18;1.08;;;;;;;15.26;100.00;98603.22;5068806;28;20432;-65
2023/09/28 03:57:46;;;;;;;4.93;1.05;;;;;;;15.22;100.00;98615.03;5069942;28;20091;-65
2023/09/28 04:00:16;;;;;;;4.95;1.15;;;;;;;15.22;100.00;98613.22;5070064;28;20136;-65
2023/09/28 04:02:48;;;;;;;2.70;1.05;;;;;;;15.30;100.00;98626.53;5069026;28;20052;-65
2023/09/28 04:05:20;;;;;;;3.42;0.93;;;;;;;15.18;100.00;98625.84;5070875;28;20044;-65
2023/09/28 04:07:47;;;;;;;3.58;0.90;;;;;;;15.16;100.00;98632.25;5070668;28;20135;-65
2023/09/28 04:10:14;;;;;;;3.55;0.98;;;;;;;15.28;100.00;98643.47;5066876;28;20052;-65
2023/09/28 04:12:41;;;;;;;2.58;0.77;;;;;;;15.25;100.00;98646.41;5056432;28;20131;-65
2023/09/28 04:15:08;;;;;;;1.98;0.73;;;;;;;15.31;100.00;98656.38;5070345;28;20064;-65
2023/09/28 04:17:36;;;;;;;4.35;0.80;;;;;;;15.34;100.00;98666.66;5060569;28;20496;-65
2023/09/28 04:20:06;;;;;;;8.25;1.10;;;;;;;15.04;100.00;98668.41;5070961;28;20048;-65
2023/09/28 04:22:33;;;;;;;1.33;0.70;;;;;;;15.25;100.00;98673.59;5070358;28;20045;-65
2023/09/28 04:24:59;;;;;;;1.27;0.60;;;;;;;15.27;100.00;98682.19;5070692;28;20458;-65
2023/09/28 04:27:26;;;;;;;1.48;0.60;;;;;;;15.31;100.00;98685.38;5069701;28;20508;-65
2023/09/28 04:29:54;;;;;;;1.20;0.60;;;;;;;15.29;100.00;98690.78;5053982;28;20055;-64
2023/09/28 04:32:21;;;;;;;2.20;0.70;;;;;;;15.27;100.00;98694.53;5071036;28;20459;-65
2023/09/28 04:34:48;;;;;;;1.17;0.80;;;;;;;15.29;100.00;98703.97;5070262;28;20044;-65
2023/09/28 04:37:19;;;;;;;2.25;0.70;;;;;;;15.29;100.00;98709.22;5067646;28;20059;-65
2023/09/28 04:39:45;;;;;;;1.08;0.70;;;;;;;15.20;100.00;98704.78;5069697;28;20066;-65
2023/09/28 04:42:12;;;;;;;1.35;0.70;;;;;;;15.22;100.00;98707.28;5068791;28;20430;-65
2023/09/28 04:44:43;;;;;;;1.58;0.73;;;;;;;15.05;100.00;98714.91;5067338;28;20055;-65
2023/09/28 04:47:11;;;;;;;1.60;0.70;;;;;;;15.11;100.00;98726.69;5069373;28;20572;-64
2023/09/28 04:49:41;;;;;;;1.35;0.70;;;;;;;15.09;100.00;98723.38;5070283;28;20052;-64
2023/09/28 04:52:12;;;;;;;0.80;0.50;;;;;;;15.07;100.00;98738.47;5069986;28;20048;-64
2023/09/28 04:54:39;;;;;;;1.60;0.75;;;;;;;14.84;100.00;98732.56;5065960;28;20049;-64
2023/09/28 04:57:06;;;;;;;2.05;0.60;;;;;;;14.89;100.00;98738.28;5070207;28;20063;-64
2023/09/28 04:59:40;;;;;;;1.60;1.13;;;;;;;14.84;100.00;98757.13;5070127;28;20533;-64
2023/09/28 05:02:08;;;;;;;0.60;0.60;;;;;;;14.78;100.00;98769.06;5061321;28;20044;-64
2023/09/28 05:04:36;;;;;;;1.58;0.80;;;;;;;14.77;100.00;98777.91;5069589;28;20052;-64
2023/09/28 05:07:04;;;;;;;0.70;0.68;;;;;;;14.71;100.00;98794.22;5068500;28;20080;-64
2023/09/28 05:09:32;;;;;;;0.68;0.60;;;;;;;14.62;100.00;98800.28;5070594;28;20066;-64
2023/09/28 05:12:01;;;;;;;1.15;0.65;;;;;;;14.50;100.00;98804.78;5069364;28;20401;-64
2023/09/28 05:14:29;;;;;;;1.38;0.98;;;;;;;14.47;100.00;98810.31;5068850;28;20068;-64
2023/09/28 05:16:56;;;;;;;1.40;0.70;;;;;;;14.42;100.00;98823.00;5068134;28;21144;-64
2023/09/28 05:19:24;;;;;;;1.02;0.60;;;;;;;14.52;100.00;98823.06;5067894;28;20389;-65
2023/09/28 05:21:51;;;;;;;0.70;0.60;;;;;;;14.55;100.00;98836.81;5069478;28;20044;-64
2023/09/28 05:24:18;;;;;;;1.02;0.70;;;;;;;14.51;100.00;98847.75;5069385;28;20052;-64
2023/09/28 05:26:44;;;;;;;0.55;0.55;;;;;;;14.36;100.00;98845.44;5068675;28;20055;-64
2023/09/28 05:29:11;;;;;;;1.40;0.63;;;;;;;14.40;100.00;98857.38;5068963;28;20394;-64
2023/09/28 05:31:38;;;;;;;3.10;0.73;;;;;;;14.40;100.00;98862.63;5069756;28;20043;-64
2023/09/28 05:34:05;;;;;;;1.98;1.10;;;;;;;14.45;100.00;98870.16;5070002;28;20048;-65
2023/09/28 05:36:32;;;;;;;0.98;0.70;;;;;;;14.42;100.00;98867.78;5069259;28;20080;-65
2023/09/28 05:38:59;;;;;;;1.05;0.70;;;;;;;14.43;100.00;98882.63;5061647;28;20402;-65
2023/09/28 05:41:26;;;;;;;1.52;0.80;;;;;;;14.44;100.00;98893.00;5066012;28;20048;-65
2023/09/28 05:43:52;;;;;;;0.88;0.70;;;;;;;14.47;100.00;98891.09;5059846;28;20397;-65
2023/09/28 05:46:19;;;;;;;1.83;0.90;;;;;;;14.44;100.00;98900.91;5055935;28;20060;-65
2023/09/28 05:48:47;;;;;;;1.58;0.68;;;;;;;14.52;100.00;98904.69;5057843;28;20063;-65
2023/09/28 05:51:15;;;;;;;1.17;0.70;;;;;;;14.55;100.00;98914.97;5063579;28;20057;-65
2023/09/28 05:53:42;;;;;;;1.58;0.75;;;;;;;14.61;100.00;98931.16;5068460;28;20084;-65
2023/09/28 05:56:12;;;;;;;1.65;0.90;;;;;;;14.54;100.00;98926.50;5055064;28;20048;-65
2023/09/28 05:58:39;;;;;;;2.60;0.80;;;;;;;14.53;100.00;98946.69;5062038;28;20049;-65
2023/09/28 06:01:07;;;;;;;1.65;0.70;;;;;;;14.41;100.00;98950.34;5059707;28;20048;-65
2023/09/28 06:03:35;;;;;;;3.15;0.88;;;;;;;14.27;100.00;98938.34;5063625;28;20270;-65
2023/09/28 06:06:16;;;;;;;2.67;0.82;;;;;;;14.49;100.00;98963.72;5061559;28;20437;-65
2023/09/28 06:08:45;;;;;;;2.00;0.75;;;;;;;14.39;100.00;98971.53;5063098;28;20128;-65
2023/09/28 06:11:14;;;;;;;1.05;0.60;;;;;;;14.33;100.00;98985.22;5069175;28;20037;-65
2023/09/28 06:13:42;;;;;;;2.92;0.90;;;;;;;14.09;100.00;98995.06;5071075;28;20056;-65
2023/09/28 06:16:29;;;;;;;2.22;0.90;;;;;;;14.10;100.00;99002.03;5071964;28;20098;-65
2023/09/28 06:18:56;;;;;;;3.33;1.10;;;;;;;14.21;100.00;99013.34;5065670;28;20098;-65
2023/09/28 06:21:23;;;;;;;1.65;0.85;;;;;;;14.28;100.00;99011.06;5075729;28;20410;-65
2023/09/28 06:23:49;;;;;;;2.40;0.90;;;;;;;14.36;100.00;99013.06;5054383;28;20056;-65
2023/09/28 06:26:16;;;;;;;1.50;0.80;;;;;;;14.28;100.00;99018.13;5051608;28;20091;-65
2023/09/28 06:29:00;;;;;;;1.92;1.02;;;;;;;14.29;100.00;99031.19;5064586;28;20498;-65
2023/09/28 06:31:27;;;;;;;1.17;0.80;;;;;;;14.37;100.00;99038.44;5061260;28;20044;-65
2023/09/28 06:33:54;;;;;;;2.53;0.95;;;;;;;14.31;100.00;99045.06;5074087;28;20054;-65
2023/09/28 06:36:21;;;;;;;1.77;0.80;;;;;;;14.30;100.00;99053.91;5066518;28;20052;-65
2023/09/28 06:39:08;;;;;;;1.48;0.70;;;;;;;14.17;100.00;99055.84;5071954;28;20051;-65
2023/09/28 06:41:37;;;;;;;3.25;0.80;;;;;;;14.27;100.00;99059.44;5073747;28;20386;-64
2023/09/28 06:44:04;;;;;;;3.03;0.98;;;;;;;14.52;100.00;99062.69;5070196;28;20052;-65
2023/09/28 06:46:31;;;;;;;1.13;0.75;;;;;;;14.56;100.00;99064.16;5056932;28;20044;-65
2023/09/28 06:48:59;;;;;;;2.45;0.90;;;;;;;14.59;100.00;99069.19;5061632;28;20056;-65
2023/09/28 06:51:27;;;;;;;3.40;0.82;;;;;;;14.69;100.00;99085.09;5064468;28;20045;-65
2023/09/28 06:53:54;;;;;;;2.45;0.90;;;;;;;14.54;100.00;99082.69;5064454;28;20422;-65
2023/09/28 06:56:21;;;;;;;2.33;0.80;;;;;;;14.42;100.00;99097.69;5061383;28;20459;-65
2023/09/28 06:58:50;;;;;;;2.25;0.90;;;;;;;14.40;100.00;99099.59;5062419;28;20056;-65
2023/09/28 07:01:17;;;;;;;3.67;0.90;;;;;;;14.41;100.00;99109.19;5060768;28;20041;-68
2023/09/28 07:03:44;;;;;;;4.35;1.50;;;;;;;14.41;100.00;99118.84;5055251;28;20045;-68
2023/09/28 07:06:12;;;;;;;5.72;1.25;;;;;;;14.64;100.00;99103.88;5059184;28;20051;-68
2023/09/28 07:08:38;;;;;;;2.10;0.93;;;;;;;14.85;100.00;99116.28;5054142;28;20049;-68
2023/09/28 07:11:05;;;;;;;4.35;1.15;;;;;;;15.59;100.00;99118.13;5065593;28;20381;-68
2023/09/28 07:13:32;;;;;;;1.58;0.77;;;;;;;15.95;100.00;99119.44;5059044;28;20095;-69
2023/09/28 07:15:58;;;;;;;2.35;0.90;;;;;;;16.64;100.00;99126.66;5051384;28;20131;-68
2023/09/28 07:18:25;;;;;;;4.53;1.08;;;;;;;16.74;100.00;99110.81;5054747;28;20399;-69
2023/09/28 07:20:53;;;;;;;2.83;0.90;;;;;;;17.13;100.00;99118.81;5063862;28;20041;-69
2023/09/28 07:23:20;;;;;;;2.83;0.90;;;;;;;17.02;100.00;99118.97;5053023;28;20055;-68
2023/09/28 07:25:48;;;;;;;3.42;0.98;;;;;;;16.76;100.00;99094.81;5064241;28;20482;-69
2023/09/28 07:28:15;;;;;;;1.95;0.85;;;;;;;16.78;100.00;99108.75;5069162;28;20059;-69
2023/09/28 07:30:42;;;;;;;1.65;0.77;;;;;;;17.01;100.00;99110.16;5050229;28;20614;-68
2023/09/28 07:33:13;;;;;;;4.55;1.00;;;;;;;16.70;100.00;99093.56;5051518;28;20051;-69
2023/09/28 07:35:40;;;;;;;3.58;0.73;;;;;;;17.18;100.00;99106.00;5053613;28;20139;-68
2023/09/28 07:38:07;;;;;;;2.85;0.77;;;;;;;17.20;100.00;99122.56;5058642;28;20103;-68
2023/09/28 07:40:34;;;;;;;1.55;0.65;;;;;;;17.46;100.00;99130.78;5063178;28;20056;-69
2023/09/28 07:43:14;;;;;;;1.05;0.60;;;;;;;17.69;100.00;99132.25;5070577;28;20048;-68
2023/09/28 07:45:41;;;;;;;1.17;0.60;;;;;;;17.76;100.00;99130.69;5072048;28;20112;-68
2023/09/28 07:48:08;;;;;;;3.95;0.93;;;;;;;17.68;100.00;99149.97;5062611;28;20380;-68
2023/09/28 07:50:35;;;;;;;3.42;0.70;;;;;;;17.29;100.00;99149.16;5051744;28;20061;-68
2023/09/28 07:53:02;;;;;;;3.22;0.70;;;;;;;17.28;100.00;99156.25;5052941;28;20053;-67
2023/09/28 07:55:29;;;;;;;2.13;0.70;;;;;;;17.23;100.00;99159.31;5055219;28;20079;-69
2023/09/28 07:57:55;;;;;;;2.97;0.80;;;;;;;17.30;100.00;99172.84;5068749;28;20048;-68
2023/09/28 08:00:42;;;;;;;1.52;0.63;;;;;;;17.09;100.00;99167.66;5071714;28;20048;-68
2023/09/28 08:03:09;;;;;;;5.70;0.65;;;;;;;17.50;100.00;99196.66;5071181;28;20398;-68
2023/09/28 08:05:36;;;;;;;0.82;0.52;;;;;;;17.94;100.00;99200.53;5070498;28;20055;-68
2023/09/28 08:08:03;;;;;;;1.75;0.60;;;;;;;17.91;100.00;99208.75;5071639;28;20102;-68
2023/09/28 08:10:42;;;;;;;2.13;0.70;;;;;;;18.03;100.00;99215.56;5071021;28;20542;-68
2023/09/28 08:13:09;;;;;;;3.92;0.70;;;;;;;18.05;100.00;99227.81;5059897;28;20045;-68
2023/09/28 08:15:39;;;;;;;1.33;0.60;;;;;;;18.18;100.00;99226.53;5067538;28;20129;-68
2023/09/28 08:18:06;;;;;;;1.33;0.50;;;;;;;18.32;100.00;99237.66;5071302;28;20056;-68
2023/09/28 08:20:33;;;;;;;3.50;0.70;;;;;;;18.22;100.00;99235.03;5062959;28;20422;-68
2023/09/28 08:23:01;;;;;;;3.35;0.80;;;;;;;18.31;100.00;99228.88;5069474;28;20103;-68
2023/09/28 08:25:31;;;;;;;1.80;0.60;;;;;;;18.34;100.00;99239.19;5070335;28;20091;-68
2023/09/28 08:27:58;;;;;;;1.45;0.60;;;;;;;18.19;100.00;99241.44;5070356;28;20048;-68
2023/09/28 08:30:24;;;;;;;1.50;0.63;;;;;;;18.13;100.00;99259.72;5070636;28;20056;-68
2023/09/28 08:32:53;;;;;;;0.50;0.50;;;;;;;18.24;100.00;99264.00;5070149;28;20048;-68
2023/09/28 08:35:20;;;;;;;1.80;0.70;;;;;;;17.98;100.00;99277.88;5071176;28;20091;-68
2023/09/28 08:37:47;;;;;;;2.40;0.70;;;;;;;17.81;100.00;99297.88;5069120;28;20426;-68
2023/09/28 08:40:14;;;;;;;3.83;0.63;;;;;;;17.29;100.00;99302.59;5060727;28;20052;-69
2023/09/28 08:42:45;;;;;;;1.73;0.60;;;;;;;17.40;100.00;99311.22;5070709;28;20048;-68
2023/09/28 08:45:15;;;;;;;2.05;0.60;;;;;;;17.45;100.00;99314.28;5071212;28;20474;-68
2023/09/28 08:47:48;;;;;;;2.20;0.60;;;;;;;17.22;100.00;99320.78;5069804;28;20058;-68
2023/09/28 08:50:26;;;;;;;;;;;;;;;17.13;100.00;99329.53;5070409;28;20514;-68
2023/09/28 08:52:54;;;;;;;2.35;0.63;;;;;;;17.00;100.00;99333.25;5069749;28;19924;-68
2023/09/28 08:55:22;;;;;;;1.67;0.68;;;;;;;16.96;100.00;99325.69;5067225;28;20406;-68
2023/09/28 08:57:49;;;;;;;2.60;0.82;;;;;;;17.16;100.00;99335.41;5068722;28;20048;-68
2023/09/28 09:00:22;;;;;;;2.47;0.70;;;;;;;16.97;100.00;99341.44;5069865;28;20137;-68
2023/09/28 09:02:51;;;;;;;2.53;0.75;;;;;;;17.16;100.00;99358.38;5069915;28;20372;-68
2023/09/28 09:05:20;;;;;;;1.92;0.80;;;;;;;17.13;100.00;99356.81;5085624;28;20055;-68
2023/09/28 09:07:49;;;;;;;2.15;0.70;;;;;;;17.28;100.00;99359.91;5068962;28;20071;-68
2023/09/28 09:10:19;;;;;;;1.65;0.68;;;;;;;17.18;100.00;99351.97;5070114;28;20651;-68
2023/09/28 09:12:45;;;;;;;2.28;0.85;;;;;;;17.35;100.00;99378.75;5056946;28;20433;-68
2023/09/28 09:15:13;;;;;;;2.22;0.80;;;;;;;17.29;100.00;99408.38;5070531;28;20058;-68
2023/09/28 09:17:39;;;;;;;4.00;0.80;;;;;;;17.11;100.00;99419.59;5069538;28;20479;-68
2023/09/28 09:20:08;;;;;;;3.05;0.80;;;;;;;16.99;100.00;99416.16;5070576;28;20087;-68
2023/09/28 09:22:36;;;;;;;2.58;0.80;;;;;;;17.08;100.00;99418.03;5055986;28;20044;-68
2023/09/28 09:25:22;;;;;;;1.75;0.70;;;;;;;16.81;100.00;99423.84;5070490;28;20761;-68
2023/09/28 09:27:50;;;;;;;0.98;0.60;;;;;;;17.11;100.00;99424.03;5065476;28;20040;-68
2023/09/28 09:30:17;;;;;;;3.53;0.70;;;;;;;16.97;100.00;99423.41;5065636;28;20509;-68
2023/09/28 09:32:46;;;;;;;3.03;0.88;;;;;;;16.95;100.00;99443.84;5059520;28;20072;-68
2023/09/28 09:35:13;;;;;;;3.88;0.98;;;;;;;16.84;100.00;99446.56;5075250;28;20044;-68
2023/09/28 09:37:50;;;;;;;5.22;0.90;;;;;;;16.89;100.00;99463.72;5075446;28;20052;-68
2023/09/28 09:40:18;;;;;;;10.38;1.27;;;;;;;16.64;100.00;99474.63;5076598;28;20048;-68
2023/09/28 09:42:44;;;;;;;2.88;1.02;;;;;;;16.54;100.00;99482.47;5075878;28;20044;-68
2023/09/28 09:45:12;;;;;;;3.45;1.00;;;;;;;16.48;100.00;99490.91;5075875;28;20062;-68
2023/09/28 09:47:47;;;;;;;2.03;0.73;;;;;;;16.51;100.00;99480.91;5075207;28;20048;-68
2023/09/28 09:50:16;;;;;;;3.13;0.95;;;;;;;16.61;100.00;99488.06;5064261;28;20059;-68
2023/09/28 09:52:44;;;;;;;3.70;1.08;;;;;;;16.41;100.00;99500.28;5076136;28;20053;-68
2023/09/28 09:55:12;;;;;;;4.18;1.20;;;;;;;16.51;100.00;99503.88;5076809;28;20052;-68
2023/09/28 09:57:42;;;;;;;3.22;1.00;;;;;;;16.52;100.00;99487.88;5076181;28;20057;-68
2023/09/28 10:00:09;;;;;;;6.88;1.65;;;;;;;16.49;100.00;99482.84;5077135;28;20136;-68
2023/09/28 10:02:43;;;;;;;9.48;1.10;;;;;;;16.36;100.00;99484.84;5090026;28;20461;-68
2023/09/28 10:05:13;;;;;;;3.72;0.90;;;;;;;16.52;100.00;99489.69;5077003;28;20138;-68
2023/09/28 10:07:42;;;;;;;1.98;0.80;;;;;;;16.62;100.00;99492.41;5069797;28;20122;-69
2023/09/28 10:10:13;;;;;;;4.15;1.15;;;;;;;16.59;100.00;99501.44;5066167;28;20056;-68
2023/09/28 10:12:40;;;;;;;5.50;0.90;;;;;;;16.65;100.00;99510.66;5075023;28;20128;-68
2023/09/28 10:15:09;;;;;;;5.55;1.13;;;;;;;16.52;100.00;99521.41;5075661;28;20484;-69
2023/09/28 10:17:36;;;;;;;4.75;1.27;;;;;;;16.48;100.00;99518.19;5071491;28;20571;-69
2023/09/28 10:20:06;;;;;;;6.03;1.20;;;;;;;16.53;100.00;99538.91;5076086;28;20154;-68
2023/09/28 10:22:34;;;;;;;5.55;1.10;;;;;;;16.62;100.00;99553.19;5072941;28;20143;-69
2023/09/28 10:25:01;;;;;;;5.53;1.38;;;;;;;16.46;100.00;99562.34;5065954;28;20055;-69
2023/09/28 10:27:30;;;;;;;6.32;1.20;;;;;;;16.63;100.00;99561.00;5075459;28;20048;-69
2023/09/28 10:30:23;;;;;;;5.90;1.35;;;;;;;16.79;100.00;99575.59;5076781;28;20501;-68
2023/09/28 10:32:57;;;;;;;5.78;1.40;;;;;;;16.76;100.00;99583.78;5061883;28;20041;-69
2023/09/28 10:35:31;;;;;;;6.85;1.70;;;;;;;16.60;100.00;99592.94;5076940;28;20063;-69
2023/09/28 10:38:22;;;;;;;4.05;1.20;;;;;;;16.75;100.00;99608.53;5075592;28;20467;-68
2023/09/28 10:41:00;;;;;;;4.28;1.20;;;;;;;16.87;100.00;99618.13;5089647;28;20101;-68
2023/09/28 10:43:38;;;;;;;7.05;1.77;;;;;;;16.62;100.00;99622.72;5074641;28;20098;-68
2023/09/28 10:46:06;;;;;;;8.90;1.60;;;;;;;16.63;100.00;99621.78;5073563;28;20072;-68
2023/09/28 10:48:40;;;;;;;8.57;1.45;;;;;;;16.32;100.00;99618.09;5072987;28;20063;-68
2023/09/28 10:51:11;;;;;;;6.25;1.60;;;;;;;16.11;100.00;99608.28;5073525;28;20567;-68
2023/09/28 10:53:39;;;;;;;8.10;1.73;;;;;;;16.11;100.00;99625.91;5072933;28;20040;-68
2023/09/28 10:56:06;;;;;;;7.72;1.48;;;;;;;15.87;100.00;99611.03;5072983;28;20045;-68
2023/09/28 10:58:38;;;;;;;8.45;2.10;;;;;;;15.86;100.00;99624.34;5071700;28;20082;-68
2023/09/28 11:01:06;;;;;;;5.60;1.25;;;;;;;15.91;100.00;99635.38;5072574;28;20061;-69
2023/09/28 11:03:35;;;;;;;10.55;1.98;;;;;;;15.82;100.00;99639.56;5070457;28;20056;-68
2023/09/28 11:06:04;;;;;;;10.02;1.60;;;;;;;15.88;100.00;99648.81;5072688;28;20210;-68
2023/09/28 11:08:32;;;;;;;8.63;1.90;;;;;;;15.72;100.00;99641.19;5072897;28;20540;-68
2023/09/28 11:11:01;;;;;;;10.68;1.83;;;;;;;15.42;100.00;99658.38;5073311;28;20051;-67
2023/09/28 11:13:29;;;;;;;10.70;2.13;;;;;;;15.55;100.00;99668.88;5072654;28;20483;-67
2023/09/28 11:15:57;;;;;;;10.13;1.90;;;;;;;15.44;100.00;99677.59;5071160;28;20076;-68
2023/09/28 11:18:25;;;;;;;8.73;2.05;;;;;;;15.59;100.00;99674.78;5072039;28;20052;-67
2023/09/28 11:20:56;;;;;;;7.72;1.50;;;;;;;15.63;100.00;99666.50;5074966;28;20051;-67
2023/09/28 11:23:24;;;;;;;8.65;2.28;;;;;;;15.46;100.00;99695.97;5072684;28;20052;-67
2023/09/28 11:25:52;;;;;;;10.45;1.85;;;;;;;15.57;100.00;99696.00;5071960;28;20135;-67
2023/09/28 11:28:21;;;;;;;10.23;1.70;;;;;;;15.55;100.00;99690.81;5071939;28;20048;-67
2023/09/28 11:31:23;;;;;;;12.10;2.17;;;;;;;15.61;100.00;99688.69;5071537;28;20510;-68